• Join FlightAware (Why Join?)
  • Login
  • US Flag 
12:23PM EST


 

Airport Tracker/Info


-or-


 

Live Flight TrackerFlight Track Log ✈ DAL674 ✈ 09-Oct-2013 ✈ TIST / STT - KATL

Flight Track Log - Related Links

Times and Time Zones

All times are in EDT time to prevent confusion due to time zone crossing. See the DAL674 flight status page for this flight to view local times or setup timezone preferences in your user account.

Time Position Orientation Groundspeed Altitude Reporting Facility
EDT Latitude Longitude Course Direction KTS MPH feet Rate Location/Type
02:38PM 18.3333 -64.9333 282° West 180 207 1,300  Level San Juan Center
02:39PM 18.2833 -64.9167 162° South 220 253 3,600 2,640 Climbing San Juan Center
02:40PM 18.2667 -64.9833 255° West 270 311 6,700 3,000 Climbing San Juan Center
02:41PM 18.5997 -65.2489 289° West  Level Estimated
02:41PM 18.3167 -65.0500 308° West 290 334 9,700  Level San Juan Center
02:42PM 18.6871 -65.3410 281° West  Level Estimated
02:42PM 18.3833 -65.1167 317° Northwest 360 414 11,200  Level San Juan Center
02:43PM 18.6311 -65.4572 243° Southwest  Level FlightAware Approximate
02:43PM 18.4500 -65.2000 310° West 380 437 14,000  Level San Juan Center
02:44PM 18.7189 -65.5489 282° West  Level Estimated
02:44PM 18.5167 -65.2833 310° West 390 449 16,300  Level San Juan Center
02:45PM 18.5833 -65.3667 310° West 400 460 18,500 2,040 Climbing San Juan Center
02:46PM 18.6667 -65.4667 311° West 410 472 20,400 1,800 Climbing San Juan Center
02:47PM 18.7500 -65.5667 311° West 430 495 22,200 1,620 Climbing San Juan Center
02:48PM 18.8333 -65.6667 311° West 440 506 23,700 1,500 Climbing San Juan Center
02:49PM 18.9000 -65.7500 310° West 460 529 25,300 1,440 Climbing San Juan Center
02:50PM 19.0000 -65.8667 312° West 460 529 26,600 1,320 Climbing San Juan Center
02:51PM 19.0833 -65.9667 311° West 460 529 28,000 1,260 Climbing San Juan Center
02:52PM 19.1667 -66.0833 307° West 490 564 29,200 1,320 Climbing San Juan Center
02:53PM 19.2333 -66.1667 310° West 480 552 30,700 1,500 Climbing San Juan Center
02:54PM 19.3333 -66.2667 317° Northwest 480 552 32,200 1,440 Climbing San Juan Center
02:55PM 19.4167 -66.3833 307° West 480 552 33,600 1,320 Climbing San Juan Center
02:56PM 19.5000 -66.4833 311° West 480 552 34,900 1,260 Climbing San Juan Center
02:57PM 19.5833 -66.6000 307° West 470 541 36,200 1,140 Climbing San Juan Center
02:58PM 19.6667 -66.7000 312° West 470 541 37,200 840 Climbing San Juan Center
02:59PM 19.7500 -66.8000 312° West 460 529 38,000 360 Climbing San Juan Center
03:00PM 19.8167 -66.9167 301° West 450 518 38,000  Level San Juan Center
03:01PM 19.9000 -67.0500 304° West 460 529 38,000  Level San Juan Center
03:02PM 19.9667 -67.1333 310° West 470 541 38,000  Level San Juan Center
03:03PM 20.0833 -67.2500 317° Northwest 460 529 38,000 -300 Level San Juan Center
03:04PM 20.1667 -67.3500 312° West 460 529 37,400 -900 Descending San Juan Center
03:05PM 20.2500 -67.4500 312° West 460 529 36,200 -1,140 Descending San Juan Center
03:06PM 20.3333 -67.5667 307° West 470 541 35,200 -960 Descending San Juan Center
03:08PM 20.4258 -67.6731 313° West 573 659 34,300 -600 Descending Miami Center
03:09PM 20.5133 -67.7819 311° West 522 601 34,000 -180 Descending Miami Center
03:10PM 20.6089 -67.8861 314° West 501 577 34,000  Level Miami Center
03:11PM 20.6983 -67.9908 312° West 490 564 34,000  Level Miami Center
03:12PM 20.7814 -68.1006 309° West 490 564 34,000  Level Miami Center
03:13PM 20.8689 -68.2122 310° West 490 564 34,000  Level Miami Center
03:14PM 20.9458 -68.3247 306° West 485 558 34,000  Level Miami Center
03:15PM 21.0381 -68.4478 309° West 485 558 34,000  Level Miami Center
03:16PM 21.1122 -68.5497 308° West 485 558 34,000  Level Miami Center
03:17PM 21.1933 -68.6622 308° West 485 558 34,000  Level Miami Center
03:18PM 21.2742 -68.7750 308° West 485 558 34,000  Level Miami Center
03:19PM 21.3531 -68.8861 307° West 485 558 34,000  Level Miami Center
03:20PM 21.4358 -68.9967 309° West 485 558 34,000  Level Miami Center
03:21PM 21.5144 -69.1078 307° West 485 558 34,000  Level Miami Center
03:22PM 21.5972 -69.2211 308° West 485 558 34,000  Level Miami Center
03:23PM 21.6756 -69.3303 308° West 485 558 34,000  Level Miami Center
03:24PM 21.7581 -69.4439 308° West 474 545 34,000  Level Miami Center
03:25PM 21.8342 -69.5536 307° West 475 547 34,000  Level Miami Center
03:26PM 21.9167 -69.6653 309° West 475 547 34,000  Level Miami Center
03:27PM 21.9969 -69.7772 308° West 475 547 34,000  Level Miami Center
03:28PM 22.0728 -69.8847 307° West 475 547 34,000  Level Miami Center
03:29PM 22.1489 -69.9950 307° West 468 539 34,000  Level Miami Center
03:30PM 22.2267 -70.1053 307° West 463 533 34,000  Level Miami Center
03:31PM 22.3025 -70.2133 307° West 463 533 34,000  Level Miami Center
03:32PM 22.3800 -70.3214 308° West 463 533 34,000  Level Miami Center
03:33PM 22.4558 -70.4322 307° West 463 533 34,000  Level Miami Center
03:34PM 22.5378 -70.5472 308° West 463 533 34,000  Level Miami Center
03:35PM 22.6133 -70.6581 306° West 463 533 34,000  Level Miami Center
03:36PM 22.6908 -70.7667 308° West 458 527 34,000  Level Miami Center
03:37PM 22.7642 -70.8781 306° West 458 527 34,000  Level Miami Center
03:38PM 22.8369 -70.9828 307° West 458 527 34,000  Level Miami Center
03:39PM 22.9142 -71.0919 308° West 458 527 34,000  Level Miami Center
03:40PM 22.9894 -71.2058 306° West 458 527 34,000  Level Miami Center
03:41PM 23.0644 -71.3153 307° West 463 533 34,000  Level Miami Center
03:42PM 23.1417 -71.4225 308° West 463 533 34,000  Level Miami Center
03:43PM 23.2167 -71.5344 306° West 457 526 34,000  Level Miami Center
03:44PM 23.2917 -71.6489 306° West 464 534 34,000  Level Miami Center
03:45PM 23.3664 -71.7611 306° West 464 534 34,000  Level Miami Center
03:46PM 23.4431 -71.8711 307° West 459 528 34,000  Level Miami Center
03:47PM 23.5178 -71.9836 306° West 464 534 34,000  Level Miami Center
03:48PM 23.5944 -72.0942 307° West 464 534 34,000  Level Miami Center
03:49PM 23.6669 -72.2092 305° West 464 534 34,000  Level Miami Center
03:50PM 23.7436 -72.3197 307° West 464 534 34,000  Level Miami Center
03:51PM 23.8200 -72.4328 306° West 464 534 34,000  Level Miami Center
03:52PM 23.9028 -72.5525 307° West 453 521 34,000  Level Miami Center
03:53PM 23.9792 -72.6658 306° West 453 521 34,000  Level Miami Center
03:54PM 24.0533 -72.7772 306° West 459 528 34,000  Level Miami Center
03:55PM 24.1253 -72.8908 305° West 462 532 34,000  Level Miami Center
03:56PM 24.2056 -73.0067 307° West 462 532 34,000  Level Miami Center
03:57PM 24.2817 -73.1228 306° West 469 540 34,000  Level Miami Center
03:58PM 24.3578 -73.2369 306° West 463 533 34,000  Level Miami Center
03:59PM 24.4250 -73.3489 303° West 463 533 34,000  Level Miami Center
04:00PM 24.5094 -73.4675 308° West 463 533 34,000  Level Miami Center
04:01PM 24.5872 -73.5842 306° West 463 533 34,000  Level Miami Center
04:02PM 24.6628 -73.6989 306° West 463 533 34,000  Level Miami Center
04:03PM 24.7364 -73.8136 305° West 463 533 34,000  Level Miami Center
04:04PM 24.8094 -73.9261 306° West 463 533 34,000  Level Miami Center
04:05PM 24.8872 -74.0458 306° West 463 533 34,000  Level Miami Center
04:06PM 24.9644 -74.1631 306° West 463 533 34,000  Level Miami Center
04:07PM 25.0331 -74.2486 312° West 463 533 34,000  Level Miami Center
04:08PM 25.1269 -74.3614 313° West 463 533 34,000  Level Miami Center
04:09PM 25.2142 -74.4653 313° West 463 533 34,000  Level Miami Center
04:10PM 25.3036 -74.5692 314° West 468 539 34,000  Level Miami Center
04:11PM 25.3931 -74.6733 314° West 468 539 34,000  Level Miami Center
04:12PM 25.4947 -74.7658 321° Northwest 458 527 34,000  Level Miami Center
04:13PM 25.5942 -74.8586 320° Northwest 463 533 34,000  Level Miami Center
04:14PM 25.6978 -74.9469 322° Northwest 469 540 34,000  Level Miami Center
04:15PM 25.7992 -75.0306 323° Northwest 469 540 34,000  Level Miami Center
04:16PM 25.9025 -75.1239 321° Northwest 469 540 34,000  Level Miami Center
04:17PM 25.9978 -75.2172 319° Northwest 462 532 34,000  Level Miami Center
04:18PM 26.0908 -75.3131 317° Northwest 464 534 34,000  Level Miami Center
04:19PM 26.1753 -75.4208 311° West 456 525 34,000  Level Miami Center
04:20PM 26.2414 -75.5406 302° West 449 517 34,000  Level Miami Center
04:21PM 26.2925 -75.6603 295° West 440 506 34,000  Level Miami Center
04:22PM 26.3394 -75.7897 292° West 453 521 34,000 660 Level Miami Center
04:23PM 26.3864 -75.9147 293° West 453 521 35,400 1,320 Climbing Miami Center
04:24PM 26.4350 -76.0372 294° West 438 504 37,000 1,320 Climbing Miami Center
04:25PM 26.4903 -76.1808 293° West 429 494 38,400 1,140 Climbing Miami Center
04:26PM 26.5367 -76.3036 293° West 429 494 39,300 780 Climbing Miami Center
04:27PM 26.5811 -76.4264 292° West 429 494 40,000 300 Climbing Miami Center
04:28PM 26.6272 -76.5450 294° West 429 494 40,000  Level Miami Center
04:29PM 26.6714 -76.6656 292° West 428 493 40,000  Level Miami Center
04:30PM 26.7175 -76.7867 293° West 428 493 40,000  Level Miami Center
04:31PM 26.7656 -76.9169 292° West 434 499 40,000  Level Miami Center
04:32PM 26.8092 -77.0381 292° West 434 499 40,000  Level Miami Center
04:33PM 26.8572 -77.1614 294° West 428 493 40,000  Level Miami Center
04:34PM 26.9006 -77.2803 292° West 434 499 40,000  Level Miami Center
04:35PM 26.9461 -77.4039 292° West 434 499 40,000  Level Miami Center
04:36PM 26.9875 -77.5442 288° West 434 499 40,000  Level Miami Center
04:37PM 26.9847 -77.6678 269° West 408 470 40,000  Level Miami Center
04:38PM 26.9797 -77.8006 268° West 418 481 40,000  Level Miami Center
04:39PM 26.9747 -77.9333 268° West 424 488 40,000  Level Miami Center
04:40PM 26.9694 -78.0661 267° West 426 490 40,000  Level Miami Center
04:41PM 26.9664 -78.1897 268° West 427 491 40,000  Level Miami Center
04:42PM 26.9608 -78.3178 267° West 415 478 40,000  Level Miami Center
04:43PM 26.9553 -78.4436 267° West 415 478 40,000 -420 Level Miami Center
04:44PM 26.9664 -78.5719 276° West 415 478 39,200 -540 Descending Miami Center
04:45PM 27.0489 -78.6736 312° West 401 461 39,000 -120 Descending Miami Center
04:46PM 27.1417 -78.7636 319° Northwest 419 482 39,000  Level Miami Center
04:47PM 27.2322 -78.8586 317° Northwest 441 507 39,000  Level Miami Center
04:48PM 27.3144 -78.9464 317° Northwest 453 521 39,000  Level Miami Center
04:49PM 27.4133 -79.0489 317° Northwest 444 511 39,000  Level Miami Center
04:50PM 27.5036 -79.1442 317° Northwest 444 511 39,000  Level Miami Center
04:51PM 27.5897 -79.2397 315° West 439 505 39,000  Level Miami Center
04:52PM 27.6697 -79.3258 316° Northwest 445 512 39,000  Level Miami Center
04:53PM 27.7600 -79.4217 317° Northwest 445 512 39,000  Level Miami Center
04:54PM 27.8606 -79.5272 317° Northwest 450 518 39,000  Level Miami Center
04:55PM 27.9483 -79.6281 315° West 445 512 39,000  Level Miami Center
04:56PM 28.0383 -79.7244 317° Northwest 445 512 39,000  Level Miami Center
04:57PM 28.1303 -79.8233 317° Northwest 451 519 39,000  Level Miami Center
04:58PM 28.2222 -79.9175 318° Northwest 451 519 39,000  Level Miami Center
04:59PM 28.3589 -80.0714 315° West 452 520 39,000  Level Jacksonville Center
05:00PM 28.4508 -80.1703 317° Northwest 452 520 39,000  Level Jacksonville Center
05:01PM 28.5406 -80.2672 317° Northwest 452 520 39,000  Level Jacksonville Center
05:02PM 28.6281 -80.3642 316° Northwest 452 520 39,000  Level Jacksonville Center
05:03PM 28.7197 -80.4686 315° West 447 514 39,000  Level Jacksonville Center
05:04PM 28.8092 -80.5658 316° Northwest 447 514 39,000  Level Jacksonville Center
05:05PM 28.9128 -80.6464 326° Northwest 447 514 39,000  Level Jacksonville Center
05:06PM 29.0308 -80.7103 335° Northwest 457 526 39,000  Level Jacksonville Center
05:07PM 29.1489 -80.7742 335° Northwest 457 526 39,000  Level Jacksonville Center
05:08PM 29.2606 -80.8408 332° Northwest 457 526 39,000  Level Jacksonville Center
05:09PM 29.3722 -80.9075 333° Northwest 457 526 39,000  Level Jacksonville Center
05:10PM 29.4492 -81.0206 308° West 438 504 39,000 -180 Level Jacksonville Center
05:11PM 29.5111 -81.1361 302° West 438 504 38,700 -600 Descending Jacksonville Center
05:12PM 29.5817 -81.2544 304° West 438 504 37,800 -900 Descending Jacksonville Center
05:13PM 29.6500 -81.3728 304° West 444 511 37,000 -420 Descending Jacksonville Center
05:14PM 29.7200 -81.4839 306° West 439 505 37,000  Level Jacksonville Center
05:15PM 29.8314 -81.5397 337° Northwest 420 483 37,000  Level Jacksonville Center
05:16PM 29.9592 -81.5717 348° North 432 497 37,000  Level Jacksonville Center
05:17PM 30.0825 -81.6036 347° North 444 511 37,000  Level Jacksonville Center
05:18PM 30.2081 -81.6331 349° North 444 511 37,000  Level Jacksonville Center
05:19PM 30.3211 -81.6606 348° North 455 524 37,000  Level Jacksonville Center
05:20PM 30.4489 -81.6950 347° North 460 529 37,000  Level Jacksonville Center
05:21PM 30.5722 -81.7297 346° North 451 519 37,000  Level Jacksonville Center
05:22PM 30.6958 -81.7644 346° North 456 525 37,000  Level Jacksonville Center
05:23PM 30.8192 -81.7992 346° North 456 525 37,000  Level Jacksonville Center
05:24PM 30.9325 -81.8583 336° Northwest 451 519 37,000  Level Jacksonville Center
05:25PM 31.0417 -81.9250 332° Northwest 445 512 37,000  Level Jacksonville Center
05:26PM 31.1528 -81.9919 333° Northwest 445 512 37,000  Level Jacksonville Center
05:27PM 31.2639 -82.0542 334° Northwest 450 518 37,000 -300 Level Jacksonville Center
05:28PM 31.3750 -82.1211 333° Northwest 450 518 36,400 -720 Descending Jacksonville Center
05:29PM 31.4881 -82.1886 333° Northwest 450 518 35,600 -720 Descending Jacksonville Center
05:30PM 31.6011 -82.2536 334° Northwest 457 526 35,000 -240 Descending Jacksonville Center
05:33PM 31.8653 -82.4103 333° Northwest 457 526 35,000  Level Atlanta Center
05:34PM 31.9767 -82.4792 332° Northwest 451 519 35,000  Level Atlanta Center
05:35PM 32.0739 -82.5731 321° Northwest 451 519 35,000  Level Atlanta Center
05:36PM 32.1669 -82.6697 319° Northwest 451 519 35,000  Level Atlanta Center
05:37PM 32.2619 -82.7689 319° Northwest 451 519 35,000 -420 Level Atlanta Center
05:38PM 32.3567 -82.8708 318° Northwest 451 519 34,200 -900 Descending Atlanta Center
05:39PM 32.4517 -82.9756 317° Northwest 451 519 33,200 -960 Descending Atlanta Center
05:40PM 32.5486 -83.0803 318° Northwest 456 525 32,300 -960 Descending Atlanta Center
05:41PM 32.6453 -83.1853 318° Northwest 461 531 31,300 -1,800 Descending Atlanta Center
05:42PM 32.7419 -83.2906 318° Northwest 467 537 28,800 -2,820 Descending Atlanta Center
05:43PM 32.8386 -83.3986 317° Northwest 472 543 25,700 -3,000 Descending Atlanta Center
05:44PM 32.9331 -83.4969 319° Northwest 467 537 22,900 -3,000 Descending Atlanta Center
05:45PM 33.0211 -83.5953 317° Northwest 451 519 19,700 -3,240 Descending Atlanta Center
05:46PM 33.1175 -83.7039 317° Northwest 432 497 16,500 -2,820 Descending Atlanta Center
05:47PM 33.2011 -83.7981 317° Northwest 419 482 14,100 -1,260 Descending Atlanta Center
05:48PM 33.2661 -83.8872 311° West 405 466 14,000 -60 Descending Atlanta Center
05:49PM 33.3392 -83.9942 309° West 405 466 14,000 -180 Level Atlanta Center
05:50PM 33.4081 -84.0961 309° West 404 465 13,700 -600 Descending Atlanta Center
05:51PM 33.4833 -84.2000 311° West 359 413 12,900 -540 Descending Atlanta TRACON
05:52PM 33.5333 -84.3000 301° West 293 337 12,600 -660 Descending Atlanta TRACON
05:53PM 33.5369 -84.3778 273° West 277 319 11,700 -1,500 Descending Atlanta Center
05:54PM 33.5367 -84.4625 270° West 266 306 9,900 -1,980 Descending Atlanta Center
05:56PM 33.5333 -84.6167 269° West 233 268 5,800 -1,920 Descending Atlanta TRACON
05:57PM 33.5667 -84.6667 309° West 230 265 4,200 -1,200 Descending Atlanta TRACON
05:58PM 33.6167 -84.6167 40° Northeast 193 222 3,400 -720 Descending Atlanta TRACON
05:59PM 33.6167 -84.5667 90° East 193 222 2,900 -780 Descending Atlanta TRACON
06:00PM 33.6167 -84.5000 90° East 156 180 1,900 -780 Descending Atlanta TRACON
06:01PM 33.6167 -84.4667 90° East 121 139 1,300 -600 Descending Atlanta TRACON